sensor_id;sensor_type;location;lat;lon;timestamp;temperature;humidity
10384;DHT22;5238;43.508;4.980;2023-07-31T00:01:26;25.40;91.30
10384;DHT22;5238;43.508;4.980;2023-07-31T00:03:54;25.30;91.30
10384;DHT22;5238;43.508;4.980;2023-07-31T00:06:21;25.30;91.30
10384;DHT22;5238;43.508;4.980;2023-07-31T00:08:48;25.30;91.30
10384;DHT22;5238;43.508;4.980;2023-07-31T00:11:15;25.20;91.30
10384;DHT22;5238;43.508;4.980;2023-07-31T00:13:42;25.20;91.30
10384;DHT22;5238;43.508;4.980;2023-07-31T00:16:09;25.20;91.30
10384;DHT22;5238;43.508;4.980;2023-07-31T00:18:35;25.20;91.30
10384;DHT22;5238;43.508;4.980;2023-07-31T00:21:04;25.10;91.30
10384;DHT22;5238;43.508;4.980;2023-07-31T00:23:31;25.10;91.30
10384;DHT22;5238;43.508;4.980;2023-07-31T00:25:57;25.00;91.30
10384;DHT22;5238;43.508;4.980;2023-07-31T00:28:24;25.00;91.30
10384;DHT22;5238;43.508;4.980;2023-07-31T00:30:52;24.90;91.30
10384;DHT22;5238;43.508;4.980;2023-07-31T00:33:19;24.90;91.30
10384;DHT22;5238;43.508;4.980;2023-07-31T00:35:48;24.90;91.30
10384;DHT22;5238;43.508;4.980;2023-07-31T00:38:16;24.80;91.30
10384;DHT22;5238;43.508;4.980;2023-07-31T00:40:43;24.80;91.30
10384;DHT22;5238;43.508;4.980;2023-07-31T00:43:10;24.70;91.30
10384;DHT22;5238;43.508;4.980;2023-07-31T00:45:37;24.70;91.30
10384;DHT22;5238;43.508;4.980;2023-07-31T00:48:04;24.70;91.30
10384;DHT22;5238;43.508;4.980;2023-07-31T00:50:33;24.70;91.30
10384;DHT22;5238;43.508;4.980;2023-07-31T00:53:01;24.60;91.30
10384;DHT22;5238;43.508;4.980;2023-07-31T00:55:30;24.60;91.30
10384;DHT22;5238;43.508;4.980;2023-07-31T00:57:57;24.60;91.30
10384;DHT22;5238;43.508;4.980;2023-07-31T01:00:24;24.50;91.30
10384;DHT22;5238;43.508;4.980;2023-07-31T01:02:51;24.50;91.30
10384;DHT22;5238;43.508;4.980;2023-07-31T01:05:22;24.50;91.30
10384;DHT22;5238;43.508;4.980;2023-07-31T01:07:59;24.50;91.30
10384;DHT22;5238;43.508;4.980;2023-07-31T01:10:41;24.40;91.30
10384;DHT22;5238;43.508;4.980;2023-07-31T01:13:13;24.40;91.30
10384;DHT22;5238;43.508;4.980;2023-07-31T01:15:40;24.40;91.30
10384;DHT22;5238;43.508;4.980;2023-07-31T01:18:07;24.30;91.30
10384;DHT22;5238;43.508;4.980;2023-07-31T01:20:35;24.30;91.30
10384;DHT22;5238;43.508;4.980;2023-07-31T01:23:26;24.30;91.30
10384;DHT22;5238;43.508;4.980;2023-07-31T01:26:03;24.30;91.30
10384;DHT22;5238;43.508;4.980;2023-07-31T01:28:40;24.20;91.30
10384;DHT22;5238;43.508;4.980;2023-07-31T01:31:13;24.20;91.30
10384;DHT22;5238;43.508;4.980;2023-07-31T01:33:41;24.20;91.30
10384;DHT22;5238;43.508;4.980;2023-07-31T01:36:08;24.20;91.30
10384;DHT22;5238;43.508;4.980;2023-07-31T01:38:35;24.20;91.30
10384;DHT22;5238;43.508;4.980;2023-07-31T01:41:04;24.20;91.30
10384;DHT22;5238;43.508;4.980;2023-07-31T01:43:31;24.20;91.30
10384;DHT22;5238;43.508;4.980;2023-07-31T01:45:58;24.10;91.30
10384;DHT22;5238;43.508;4.980;2023-07-31T01:48:24;24.10;91.30
10384;DHT22;5238;43.508;4.980;2023-07-31T01:50:51;24.10;91.30
10384;DHT22;5238;43.508;4.980;2023-07-31T01:53:18;24.10;91.30
10384;DHT22;5238;43.508;4.980;2023-07-31T01:55:45;24.10;91.30
10384;DHT22;5238;43.508;4.980;2023-07-31T01:58:13;24.10;91.30
10384;DHT22;5238;43.508;4.980;2023-07-31T02:00:40;24.10;91.30
10384;DHT22;5238;43.508;4.980;2023-07-31T02:03:07;24.00;91.30
10384;DHT22;5238;43.508;4.980;2023-07-31T02:05:34;24.00;91.30
10384;DHT22;5238;43.508;4.980;2023-07-31T02:08:01;24.00;91.30
10384;DHT22;5238;43.508;4.980;2023-07-31T02:10:28;23.90;91.30
10384;DHT22;5238;43.508;4.980;2023-07-31T02:12:55;23.90;91.30
10384;DHT22;5238;43.508;4.980;2023-07-31T02:15:24;23.90;91.30
10384;DHT22;5238;43.508;4.980;2023-07-31T02:17:51;23.90;91.30
10384;DHT22;5238;43.508;4.980;2023-07-31T02:20:18;23.80;91.30
10384;DHT22;5238;43.508;4.980;2023-07-31T02:22:45;23.80;91.30
10384;DHT22;5238;43.508;4.980;2023-07-31T02:25:12;23.80;91.30
10384;DHT22;5238;43.508;4.980;2023-07-31T02:27:39;23.70;91.30
10384;DHT22;5238;43.508;4.980;2023-07-31T02:30:07;23.70;91.30
10384;DHT22;5238;43.508;4.980;2023-07-31T02:32:36;23.70;91.30
10384;DHT22;5238;43.508;4.980;2023-07-31T02:35:03;23.60;91.30
10384;DHT22;5238;43.508;4.980;2023-07-31T02:37:30;23.60;91.30
10384;DHT22;5238;43.508;4.980;2023-07-31T02:39:57;23.50;91.30
10384;DHT22;5238;43.508;4.980;2023-07-31T02:42:24;23.50;91.30
10384;DHT22;5238;43.508;4.980;2023-07-31T02:44:51;23.50;91.30
10384;DHT22;5238;43.508;4.980;2023-07-31T02:47:21;23.40;91.30
10384;DHT22;5238;43.508;4.980;2023-07-31T02:49:49;23.40;91.30
10384;DHT22;5238;43.508;4.980;2023-07-31T02:52:16;23.40;91.30
10384;DHT22;5238;43.508;4.980;2023-07-31T02:54:43;23.30;91.30
10384;DHT22;5238;43.508;4.980;2023-07-31T02:57:10;23.20;91.30
10384;DHT22;5238;43.508;4.980;2023-07-31T02:59:37;23.20;91.30
10384;DHT22;5238;43.508;4.980;2023-07-31T03:02:04;23.20;91.30
10384;DHT22;5238;43.508;4.980;2023-07-31T03:04:31;23.10;91.30
10384;DHT22;5238;43.508;4.980;2023-07-31T03:07:00;23.10;91.30
10384;DHT22;5238;43.508;4.980;2023-07-31T03:09:26;23.10;91.30
10384;DHT22;5238;43.508;4.980;2023-07-31T03:11:53;23.10;91.30
10384;DHT22;5238;43.508;4.980;2023-07-31T03:14:20;23.10;91.30
10384;DHT22;5238;43.508;4.980;2023-07-31T03:16:47;23.00;91.30
10384;DHT22;5238;43.508;4.980;2023-07-31T03:19:14;23.00;91.30
10384;DHT22;5238;43.508;4.980;2023-07-31T03:21:41;22.90;91.30
10384;DHT22;5238;43.508;4.980;2023-07-31T03:24:10;22.90;91.30
10384;DHT22;5238;43.508;4.980;2023-07-31T03:26:37;22.90;91.30
10384;DHT22;5238;43.508;4.980;2023-07-31T03:29:07;22.90;91.30
10384;DHT22;5238;43.508;4.980;2023-07-31T03:31:33;22.90;91.30
10384;DHT22;5238;43.508;4.980;2023-07-31T03:34:00;22.90;91.30
10384;DHT22;5238;43.508;4.980;2023-07-31T03:36:27;22.90;91.30
10384;DHT22;5238;43.508;4.980;2023-07-31T03:38:54;22.90;91.30
10384;DHT22;5238;43.508;4.980;2023-07-31T03:41:23;22.90;91.30
10384;DHT22;5238;43.508;4.980;2023-07-31T03:43:51;22.80;91.30
10384;DHT22;5238;43.508;4.980;2023-07-31T03:46:18;22.80;91.30
10384;DHT22;5238;43.508;4.980;2023-07-31T03:48:45;22.80;91.30
10384;DHT22;5238;43.508;4.980;2023-07-31T03:51:12;22.80;91.30
10384;DHT22;5238;43.508;4.980;2023-07-31T03:53:39;22.80;91.30
10384;DHT22;5238;43.508;4.980;2023-07-31T03:56:06;22.70;91.30
10384;DHT22;5238;43.508;4.980;2023-07-31T03:58:34;22.70;91.30
10384;DHT22;5238;43.508;4.980;2023-07-31T04:01:02;22.70;91.30
10384;DHT22;5238;43.508;4.980;2023-07-31T04:03:29;22.70;91.30
10384;DHT22;5238;43.508;4.980;2023-07-31T04:05:56;22.60;91.30
10384;DHT22;5238;43.508;4.980;2023-07-31T04:08:23;22.60;91.30
10384;DHT22;5238;43.508;4.980;2023-07-31T04:10:50;22.60;91.30
10384;DHT22;5238;43.508;4.980;2023-07-31T04:13:17;22.60;91.30
10384;DHT22;5238;43.508;4.980;2023-07-31T04:15:49;22.60;91.30
10384;DHT22;5238;43.508;4.980;2023-07-31T04:18:17;22.50;91.30
10384;DHT22;5238;43.508;4.980;2023-07-31T04:20:44;22.50;91.30
10384;DHT22;5238;43.508;4.980;2023-07-31T04:23:11;22.50;91.30
10384;DHT22;5238;43.508;4.980;2023-07-31T04:25:38;22.50;91.30
10384;DHT22;5238;43.508;4.980;2023-07-31T04:28:05;22.50;91.30
10384;DHT22;5238;43.508;4.980;2023-07-31T04:30:33;22.50;91.30
10384;DHT22;5238;43.508;4.980;2023-07-31T04:33:01;22.50;91.30
10384;DHT22;5238;43.508;4.980;2023-07-31T04:35:28;22.50;91.30
10384;DHT22;5238;43.508;4.980;2023-07-31T04:37:55;22.50;91.30
10384;DHT22;5238;43.508;4.980;2023-07-31T04:40:22;22.50;91.30
10384;DHT22;5238;43.508;4.980;2023-07-31T04:42:49;22.50;91.30
10384;DHT22;5238;43.508;4.980;2023-07-31T04:45:16;22.50;91.30
10384;DHT22;5238;43.508;4.980;2023-07-31T04:47:43;22.50;91.30
10384;DHT22;5238;43.508;4.980;2023-07-31T04:50:11;22.50;91.30
10384;DHT22;5238;43.508;4.980;2023-07-31T04:52:39;22.50;91.30
10384;DHT22;5238;43.508;4.980;2023-07-31T04:55:06;22.50;91.30
10384;DHT22;5238;43.508;4.980;2023-07-31T04:57:33;22.40;91.30
10384;DHT22;5238;43.508;4.980;2023-07-31T05:00:00;22.50;91.30
10384;DHT22;5238;43.508;4.980;2023-07-31T05:02:27;22.50;91.30
10384;DHT22;5238;43.508;4.980;2023-07-31T05:04:54;22.40;91.30
10384;DHT22;5238;43.508;4.980;2023-07-31T05:07:22;22.50;91.30
10384;DHT22;5238;43.508;4.980;2023-07-31T05:09:49;22.50;91.30
10384;DHT22;5238;43.508;4.980;2023-07-31T05:12:16;22.50;91.30
10384;DHT22;5238;43.508;4.980;2023-07-31T05:14:43;22.50;91.30
10384;DHT22;5238;43.508;4.980;2023-07-31T05:17:10;22.50;91.30
10384;DHT22;5238;43.508;4.980;2023-07-31T05:19:37;22.60;91.30
10384;DHT22;5238;43.508;4.980;2023-07-31T05:22:04;22.60;91.30
10384;DHT22;5238;43.508;4.980;2023-07-31T05:24:33;22.70;91.30
10384;DHT22;5238;43.508;4.980;2023-07-31T05:27:00;22.70;91.30
10384;DHT22;5238;43.508;4.980;2023-07-31T05:29:27;22.80;91.30
10384;DHT22;5238;43.508;4.980;2023-07-31T05:31:54;22.80;91.30
10384;DHT22;5238;43.508;4.980;2023-07-31T05:34:21;22.80;91.30
10384;DHT22;5238;43.508;4.980;2023-07-31T05:36:47;22.90;91.30
10384;DHT22;5238;43.508;4.980;2023-07-31T05:39:14;22.90;91.30
10384;DHT22;5238;43.508;4.980;2023-07-31T05:41:43;22.90;91.30
10384;DHT22;5238;43.508;4.980;2023-07-31T05:44:09;23.00;91.30
10384;DHT22;5238;43.508;4.980;2023-07-31T05:46:36;23.00;91.30
10384;DHT22;5238;43.508;4.980;2023-07-31T05:49:03;23.00;91.30
10384;DHT22;5238;43.508;4.980;2023-07-31T05:51:30;23.00;91.30
10384;DHT22;5238;43.508;4.980;2023-07-31T05:53:57;23.00;91.30
10384;DHT22;5238;43.508;4.980;2023-07-31T05:56:24;23.00;91.30
10384;DHT22;5238;43.508;4.980;2023-07-31T05:58:54;23.00;91.30
10384;DHT22;5238;43.508;4.980;2023-07-31T06:01:22;23.00;91.30
10384;DHT22;5238;43.508;4.980;2023-07-31T06:03:49;23.10;91.30
10384;DHT22;5238;43.508;4.980;2023-07-31T06:06:17;23.10;91.30
10384;DHT22;5238;43.508;4.980;2023-07-31T06:08:43;23.20;91.30
10384;DHT22;5238;43.508;4.980;2023-07-31T06:11:11;23.20;91.30
10384;DHT22;5238;43.508;4.980;2023-07-31T06:13:37;23.30;91.30
10384;DHT22;5238;43.508;4.980;2023-07-31T06:16:06;23.40;91.30
10384;DHT22;5238;43.508;4.980;2023-07-31T06:18:33;23.50;91.30
10384;DHT22;5238;43.508;4.980;2023-07-31T06:21:00;23.60;91.30
10384;DHT22;5238;43.508;4.980;2023-07-31T06:23:27;23.70;91.30
10384;DHT22;5238;43.508;4.980;2023-07-31T06:25:54;23.80;91.30
10384;DHT22;5238;43.508;4.980;2023-07-31T06:28:21;23.90;91.30
10384;DHT22;5238;43.508;4.980;2023-07-31T06:30:48;24.10;91.30
10384;DHT22;5238;43.508;4.980;2023-07-31T06:33:16;24.20;91.30
10384;DHT22;5238;43.508;4.980;2023-07-31T06:35:43;24.30;91.30
10384;DHT22;5238;43.508;4.980;2023-07-31T06:38:11;24.50;91.30
10384;DHT22;5238;43.508;4.980;2023-07-31T06:40:38;24.70;91.30
10384;DHT22;5238;43.508;4.980;2023-07-31T06:43:05;24.90;91.30
10384;DHT22;5238;43.508;4.980;2023-07-31T06:45:33;25.10;91.30
10384;DHT22;5238;43.508;4.980;2023-07-31T06:48:01;25.30;91.30
10384;DHT22;5238;43.508;4.980;2023-07-31T06:50:30;25.60;91.30
10384;DHT22;5238;43.508;4.980;2023-07-31T06:52:58;25.80;91.30
10384;DHT22;5238;43.508;4.980;2023-07-31T06:55:25;26.10;91.30
10384;DHT22;5238;43.508;4.980;2023-07-31T06:57:54;26.40;91.30
10384;DHT22;5238;43.508;4.980;2023-07-31T07:00:22;26.70;91.30
10384;DHT22;5238;43.508;4.980;2023-07-31T07:02:49;27.00;91.30
10384;DHT22;5238;43.508;4.980;2023-07-31T07:05:17;27.30;91.30
10384;DHT22;5238;43.508;4.980;2023-07-31T07:07:45;27.60;91.30
10384;DHT22;5238;43.508;4.980;2023-07-31T07:10:12;27.80;91.30
10384;DHT22;5238;43.508;4.980;2023-07-31T07:12:39;28.00;91.30
10384;DHT22;5238;43.508;4.980;2023-07-31T07:15:07;28.20;91.30
10384;DHT22;5238;43.508;4.980;2023-07-31T07:17:34;28.50;91.30
10384;DHT22;5238;43.508;4.980;2023-07-31T07:20:02;28.70;91.30
10384;DHT22;5238;43.508;4.980;2023-07-31T07:22:30;28.90;91.30
10384;DHT22;5238;43.508;4.980;2023-07-31T07:24:58;29.10;91.30
10384;DHT22;5238;43.508;4.980;2023-07-31T07:27:25;29.30;91.30
10384;DHT22;5238;43.508;4.980;2023-07-31T07:29:52;29.40;91.30
10384;DHT22;5238;43.508;4.980;2023-07-31T07:32:19;29.60;91.30
10384;DHT22;5238;43.508;4.980;2023-07-31T07:34:47;29.80;91.30
10384;DHT22;5238;43.508;4.980;2023-07-31T07:37:14;29.90;91.30
10384;DHT22;5238;43.508;4.980;2023-07-31T07:39:42;30.20;91.30
10384;DHT22;5238;43.508;4.980;2023-07-31T07:42:10;30.40;91.30
10384;DHT22;5238;43.508;4.980;2023-07-31T07:44:37;30.70;91.30
10384;DHT22;5238;43.508;4.980;2023-07-31T07:47:04;31.00;91.30
10384;DHT22;5238;43.508;4.980;2023-07-31T07:49:33;31.30;91.30
10384;DHT22;5238;43.508;4.980;2023-07-31T07:52:00;31.50;91.30
10384;DHT22;5238;43.508;4.980;2023-07-31T07:54:26;31.80;91.30
10384;DHT22;5238;43.508;4.980;2023-07-31T07:56:54;32.00;90.30
10384;DHT22;5238;43.508;4.980;2023-07-31T07:59:22;32.10;90.40
10384;DHT22;5238;43.508;4.980;2023-07-31T08:01:49;32.20;89.70
10384;DHT22;5238;43.508;4.980;2023-07-31T08:04:16;32.40;89.40
10384;DHT22;5238;43.508;4.980;2023-07-31T08:06:43;32.50;89.30
10384;DHT22;5238;43.508;4.980;2023-07-31T08:09:10;32.80;89.10
10384;DHT22;5238;43.508;4.980;2023-07-31T08:11:37;32.90;88.20
10384;DHT22;5238;43.508;4.980;2023-07-31T08:14:04;32.90;88.30
10384;DHT22;5238;43.508;4.980;2023-07-31T08:16:32;33.00;86.60
10384;DHT22;5238;43.508;4.980;2023-07-31T08:18:59;33.10;87.30
10384;DHT22;5238;43.508;4.980;2023-07-31T08:21:26;33.40;87.40
10384;DHT22;5238;43.508;4.980;2023-07-31T08:23:53;33.50;86.20
10384;DHT22;5238;43.508;4.980;2023-07-31T08:26:20;33.70;86.30
10384;DHT22;5238;43.508;4.980;2023-07-31T08:28:47;33.80;85.60
10384;DHT22;5238;43.508;4.980;2023-07-31T08:31:14;34.00;85.10
10384;DHT22;5238;43.508;4.980;2023-07-31T08:33:42;34.00;85.20
10384;DHT22;5238;43.508;4.980;2023-07-31T08:36:09;34.20;84.90
10384;DHT22;5238;43.508;4.980;2023-07-31T08:38:36;34.30;84.20
10384;DHT22;5238;43.508;4.980;2023-07-31T08:41:03;34.50;84.70
10384;DHT22;5238;43.508;4.980;2023-07-31T08:43:31;34.60;83.80
10384;DHT22;5238;43.508;4.980;2023-07-31T08:45:59;34.80;83.70
10384;DHT22;5238;43.508;4.980;2023-07-31T08:48:26;35.00;83.80
10384;DHT22;5238;43.508;4.980;2023-07-31T08:50:56;35.10;83.60
10384;DHT22;5238;43.508;4.980;2023-07-31T08:53:23;35.40;83.40
10384;DHT22;5238;43.508;4.980;2023-07-31T08:55:50;35.50;82.10
10384;DHT22;5238;43.508;4.980;2023-07-31T08:58:19;35.40;81.30
10384;DHT22;5238;43.508;4.980;2023-07-31T09:00:47;35.50;81.90
10384;DHT22;5238;43.508;4.980;2023-07-31T09:03:15;35.50;81.70
10384;DHT22;5238;43.508;4.980;2023-07-31T09:05:43;35.50;81.40
10384;DHT22;5238;43.508;4.980;2023-07-31T09:08:13;35.50;81.60
10384;DHT22;5238;43.508;4.980;2023-07-31T09:10:41;35.50;81.00
10384;DHT22;5238;43.508;4.980;2023-07-31T09:13:09;35.60;81.20
10384;DHT22;5238;43.508;4.980;2023-07-31T09:15:36;35.60;81.10
10384;DHT22;5238;43.508;4.980;2023-07-31T09:18:05;35.60;80.60
10384;DHT22;5238;43.508;4.980;2023-07-31T09:20:33;35.60;80.70
10384;DHT22;5238;43.508;4.980;2023-07-31T09:23:06;35.60;81.20
10384;DHT22;5238;43.508;4.980;2023-07-31T09:25:35;35.60;80.30
10384;DHT22;5238;43.508;4.980;2023-07-31T09:28:03;35.60;80.60
10384;DHT22;5238;43.508;4.980;2023-07-31T09:30:44;35.70;80.40
10384;DHT22;5238;43.508;4.980;2023-07-31T09:33:12;35.80;81.40
10384;DHT22;5238;43.508;4.980;2023-07-31T09:35:39;35.90;80.40
10384;DHT22;5238;43.508;4.980;2023-07-31T09:38:09;35.90;80.40
10384;DHT22;5238;43.508;4.980;2023-07-31T09:40:38;36.00;80.10
10384;DHT22;5238;43.508;4.980;2023-07-31T09:43:07;36.10;80.20
10384;DHT22;5238;43.508;4.980;2023-07-31T09:45:37;36.20;78.80
10384;DHT22;5238;43.508;4.980;2023-07-31T09:48:06;36.40;79.50
10384;DHT22;5238;43.508;4.980;2023-07-31T09:50:36;36.40;78.50
10384;DHT22;5238;43.508;4.980;2023-07-31T09:53:04;36.60;78.90
10384;DHT22;5238;43.508;4.980;2023-07-31T09:55:31;36.60;78.00
10384;DHT22;5238;43.508;4.980;2023-07-31T09:58:03;36.70;77.80
10384;DHT22;5238;43.508;4.980;2023-07-31T10:00:31;36.70;77.80
10384;DHT22;5238;43.508;4.980;2023-07-31T10:02:59;36.80;78.20
10384;DHT22;5238;43.508;4.980;2023-07-31T10:05:31;36.90;78.60
10384;DHT22;5238;43.508;4.980;2023-07-31T10:07:59;37.00;77.90
10384;DHT22;5238;43.508;4.980;2023-07-31T10:10:26;37.00;76.50
10384;DHT22;5238;43.508;4.980;2023-07-31T10:12:55;37.20;77.00
10384;DHT22;5238;43.508;4.980;2023-07-31T10:15:25;37.30;76.60
10384;DHT22;5238;43.508;4.980;2023-07-31T10:17:54;37.30;76.10
10384;DHT22;5238;43.508;4.980;2023-07-31T10:20:21;37.20;75.70
10384;DHT22;5238;43.508;4.980;2023-07-31T10:22:49;37.10;76.00
10384;DHT22;5238;43.508;4.980;2023-07-31T10:25:17;37.10;76.40
10384;DHT22;5238;43.508;4.980;2023-07-31T10:27:45;37.10;76.00
10384;DHT22;5238;43.508;4.980;2023-07-31T10:30:17;37.10;76.10
10384;DHT22;5238;43.508;4.980;2023-07-31T10:32:47;37.20;76.40
10384;DHT22;5238;43.508;4.980;2023-07-31T10:35:16;37.20;75.70
10384;DHT22;5238;43.508;4.980;2023-07-31T10:37:44;37.40;76.00
10384;DHT22;5238;43.508;4.980;2023-07-31T10:40:12;37.50;76.20
10384;DHT22;5238;43.508;4.980;2023-07-31T10:42:46;37.50;75.20
10384;DHT22;5238;43.508;4.980;2023-07-31T10:45:14;37.50;75.10
10384;DHT22;5238;43.508;4.980;2023-07-31T10:47:58;37.50;74.80
10384;DHT22;5238;43.508;4.980;2023-07-31T10:50:26;37.60;75.00
10384;DHT22;5238;43.508;4.980;2023-07-31T10:52:55;37.50;73.20
10384;DHT22;5238;43.508;4.980;2023-07-31T10:55:30;37.60;73.70
10384;DHT22;5238;43.508;4.980;2023-07-31T10:58:04;37.60;72.40
10384;DHT22;5238;43.508;4.980;2023-07-31T11:00:32;37.60;72.30
10384;DHT22;5238;43.508;4.980;2023-07-31T11:03:02;37.60;72.30
10384;DHT22;5238;43.508;4.980;2023-07-31T11:05:52;37.50;72.30
10384;DHT22;5238;43.508;4.980;2023-07-31T11:08:22;37.60;72.10
10384;DHT22;5238;43.508;4.980;2023-07-31T11:10:51;37.50;72.50
10384;DHT22;5238;43.508;4.980;2023-07-31T11:13:18;37.50;71.90
10384;DHT22;5238;43.508;4.980;2023-07-31T11:15:45;37.50;72.10
10384;DHT22;5238;43.508;4.980;2023-07-31T11:18:13;37.60;71.80
10384;DHT22;5238;43.508;4.980;2023-07-31T11:20:42;37.60;72.80
10384;DHT22;5238;43.508;4.980;2023-07-31T11:23:10;37.70;72.50
10384;DHT22;5238;43.508;4.980;2023-07-31T11:25:38;37.60;71.40
10384;DHT22;5238;43.508;4.980;2023-07-31T11:28:09;37.50;70.50
10384;DHT22;5238;43.508;4.980;2023-07-31T11:30:37;37.40;70.60
10384;DHT22;5238;43.508;4.980;2023-07-31T11:33:05;37.40;71.10
10384;DHT22;5238;43.508;4.980;2023-07-31T11:35:35;37.30;72.20
10384;DHT22;5238;43.508;4.980;2023-07-31T11:38:03;37.20;71.80
10384;DHT22;5238;43.508;4.980;2023-07-31T11:40:30;37.10;72.60
10384;DHT22;5238;43.508;4.980;2023-07-31T11:42:57;36.90;71.10
10384;DHT22;5238;43.508;4.980;2023-07-31T11:45:26;36.70;70.70
10384;DHT22;5238;43.508;4.980;2023-07-31T11:47:55;36.60;70.90
10384;DHT22;5238;43.508;4.980;2023-07-31T11:50:23;36.40;70.10
10384;DHT22;5238;43.508;4.980;2023-07-31T11:52:54;36.20;70.50
10384;DHT22;5238;43.508;4.980;2023-07-31T11:55:24;36.00;70.40
10384;DHT22;5238;43.508;4.980;2023-07-31T11:57:52;35.70;70.70
10384;DHT22;5238;43.508;4.980;2023-07-31T12:00:20;35.60;70.50
10384;DHT22;5238;43.508;4.980;2023-07-31T12:02:48;35.40;72.10
10384;DHT22;5238;43.508;4.980;2023-07-31T12:05:15;35.30;72.20
10384;DHT22;5238;43.508;4.980;2023-07-31T12:07:50;35.20;72.00
10384;DHT22;5238;43.508;4.980;2023-07-31T12:10:29;35.20;71.60
10384;DHT22;5238;43.508;4.980;2023-07-31T12:12:58;35.10;72.30
10384;DHT22;5238;43.508;4.980;2023-07-31T12:15:33;35.00;72.00
10384;DHT22;5238;43.508;4.980;2023-07-31T12:18:00;34.90;72.50
10384;DHT22;5238;43.508;4.980;2023-07-31T12:20:30;34.90;74.00
10384;DHT22;5238;43.508;4.980;2023-07-31T12:22:58;34.80;73.10
10384;DHT22;5238;43.508;4.980;2023-07-31T12:25:30;34.80;73.30
10384;DHT22;5238;43.508;4.980;2023-07-31T12:27:58;34.80;74.10
10384;DHT22;5238;43.508;4.980;2023-07-31T12:30:29;34.80;73.80
10384;DHT22;5238;43.508;4.980;2023-07-31T12:32:56;34.70;73.70
10384;DHT22;5238;43.508;4.980;2023-07-31T12:35:23;34.70;75.60
10384;DHT22;5238;43.508;4.980;2023-07-31T12:37:50;34.70;73.00
10384;DHT22;5238;43.508;4.980;2023-07-31T12:40:17;34.60;73.20
10384;DHT22;5238;43.508;4.980;2023-07-31T12:42:45;34.60;73.80
10384;DHT22;5238;43.508;4.980;2023-07-31T12:45:12;34.60;74.50
10384;DHT22;5238;43.508;4.980;2023-07-31T12:47:39;34.60;73.80
10384;DHT22;5238;43.508;4.980;2023-07-31T12:50:07;34.60;74.30
10384;DHT22;5238;43.508;4.980;2023-07-31T12:52:34;34.50;74.00
10384;DHT22;5238;43.508;4.980;2023-07-31T12:55:01;34.50;73.70
10384;DHT22;5238;43.508;4.980;2023-07-31T12:57:28;34.50;73.60
10384;DHT22;5238;43.508;4.980;2023-07-31T12:59:56;34.50;72.80
10384;DHT22;5238;43.508;4.980;2023-07-31T13:02:23;34.50;74.00
10384;DHT22;5238;43.508;4.980;2023-07-31T13:04:50;34.50;73.60
10384;DHT22;5238;43.508;4.980;2023-07-31T13:07:17;34.50;73.90
10384;DHT22;5238;43.508;4.980;2023-07-31T13:09:45;34.50;73.20
10384;DHT22;5238;43.508;4.980;2023-07-31T13:12:12;34.50;73.40
10384;DHT22;5238;43.508;4.980;2023-07-31T13:14:38;34.50;73.60
10384;DHT22;5238;43.508;4.980;2023-07-31T13:17:07;34.40;72.50
10384;DHT22;5238;43.508;4.980;2023-07-31T13:19:34;34.40;71.60
10384;DHT22;5238;43.508;4.980;2023-07-31T13:22:01;34.40;72.50
10384;DHT22;5238;43.508;4.980;2023-07-31T13:24:28;34.30;72.80
10384;DHT22;5238;43.508;4.980;2023-07-31T13:26:55;34.30;73.00
10384;DHT22;5238;43.508;4.980;2023-07-31T13:29:22;34.30;74.70
10384;DHT22;5238;43.508;4.980;2023-07-31T13:31:50;34.30;74.60
10384;DHT22;5238;43.508;4.980;2023-07-31T13:34:18;34.30;73.90
10384;DHT22;5238;43.508;4.980;2023-07-31T13:36:45;34.40;74.30
10384;DHT22;5238;43.508;4.980;2023-07-31T13:39:12;34.40;74.20
10384;DHT22;5238;43.508;4.980;2023-07-31T13:41:39;34.40;73.30
10384;DHT22;5238;43.508;4.980;2023-07-31T13:44:06;34.40;72.80
10384;DHT22;5238;43.508;4.980;2023-07-31T13:46:32;34.30;72.50
10384;DHT22;5238;43.508;4.980;2023-07-31T13:48:59;34.30;75.30
10384;DHT22;5238;43.508;4.980;2023-07-31T13:51:28;34.40;75.20
10384;DHT22;5238;43.508;4.980;2023-07-31T13:53:55;34.40;75.50
10384;DHT22;5238;43.508;4.980;2023-07-31T13:56:22;34.40;75.00
10384;DHT22;5238;43.508;4.980;2023-07-31T13:58:49;34.40;74.00
10384;DHT22;5238;43.508;4.980;2023-07-31T14:01:16;34.40;74.60
10384;DHT22;5238;43.508;4.980;2023-07-31T14:03:43;34.40;73.90
10384;DHT22;5238;43.508;4.980;2023-07-31T14:06:10;34.40;72.70
10384;DHT22;5238;43.508;4.980;2023-07-31T14:08:38;34.40;74.10
10384;DHT22;5238;43.508;4.980;2023-07-31T14:11:05;34.40;74.30
10384;DHT22;5238;43.508;4.980;2023-07-31T14:13:32;34.40;73.90
10384;DHT22;5238;43.508;4.980;2023-07-31T14:15:59;34.40;74.50
10384;DHT22;5238;43.508;4.980;2023-07-31T14:18:26;34.50;74.30
10384;DHT22;5238;43.508;4.980;2023-07-31T14:20:53;34.50;74.70
10384;DHT22;5238;43.508;4.980;2023-07-31T14:23:20;34.50;74.30
10384;DHT22;5238;43.508;4.980;2023-07-31T14:25:48;34.50;74.00
10384;DHT22;5238;43.508;4.980;2023-07-31T14:28:15;34.50;73.60
10384;DHT22;5238;43.508;4.980;2023-07-31T14:30:42;34.50;74.20
10384;DHT22;5238;43.508;4.980;2023-07-31T14:33:09;34.50;73.40
10384;DHT22;5238;43.508;4.980;2023-07-31T14:35:36;34.50;72.90
10384;DHT22;5238;43.508;4.980;2023-07-31T14:38:03;34.50;73.20
10384;DHT22;5238;43.508;4.980;2023-07-31T14:40:30;34.50;73.30
10384;DHT22;5238;43.508;4.980;2023-07-31T14:42:58;34.50;73.60
10384;DHT22;5238;43.508;4.980;2023-07-31T14:45:25;34.60;74.40
10384;DHT22;5238;43.508;4.980;2023-07-31T14:47:52;34.60;75.50
10384;DHT22;5238;43.508;4.980;2023-07-31T14:50:20;34.60;75.10
10384;DHT22;5238;43.508;4.980;2023-07-31T14:52:47;34.70;74.70
10384;DHT22;5238;43.508;4.980;2023-07-31T14:55:14;34.70;74.40
10384;DHT22;5238;43.508;4.980;2023-07-31T14:57:41;34.70;75.00
10384;DHT22;5238;43.508;4.980;2023-07-31T15:00:10;34.80;75.50
10384;DHT22;5238;43.508;4.980;2023-07-31T15:02:37;34.90;75.00
10384;DHT22;5238;43.508;4.980;2023-07-31T15:05:05;34.90;74.00
10384;DHT22;5238;43.508;4.980;2023-07-31T15:07:32;34.90;76.70
10384;DHT22;5238;43.508;4.980;2023-07-31T15:09:59;34.90;80.90
10384;DHT22;5238;43.508;4.980;2023-07-31T15:12:27;34.90;81.70
10384;DHT22;5238;43.508;4.980;2023-07-31T15:14:54;34.90;82.80
10384;DHT22;5238;43.508;4.980;2023-07-31T15:17:22;34.90;83.10
10384;DHT22;5238;43.508;4.980;2023-07-31T15:19:49;34.90;82.80
10384;DHT22;5238;43.508;4.980;2023-07-31T15:22:16;34.90;82.80
10384;DHT22;5238;43.508;4.980;2023-07-31T15:24:43;34.90;83.20
10384;DHT22;5238;43.508;4.980;2023-07-31T15:27:10;34.80;82.70
10384;DHT22;5238;43.508;4.980;2023-07-31T15:29:37;34.80;83.60
10384;DHT22;5238;43.508;4.980;2023-07-31T15:32:05;34.80;82.90
10384;DHT22;5238;43.508;4.980;2023-07-31T15:34:33;34.80;82.30
10384;DHT22;5238;43.508;4.980;2023-07-31T15:37:00;34.80;82.50
10384;DHT22;5238;43.508;4.980;2023-07-31T15:39:27;34.70;82.90
10384;DHT22;5238;43.508;4.980;2023-07-31T15:41:54;34.70;81.70
10384;DHT22;5238;43.508;4.980;2023-07-31T15:44:21;34.70;82.50
10384;DHT22;5238;43.508;4.980;2023-07-31T15:46:48;34.70;82.40
10384;DHT22;5238;43.508;4.980;2023-07-31T15:49:15;34.70;81.80